createdAt,value
2023-03-17T00:02:10.011Z,9.50
2023-03-17T00:04:39.994Z,8.05
2023-03-17T00:07:06.988Z,7.40
2023-03-17T00:09:36.475Z,7.43
2023-03-17T00:12:09.529Z,11.00
2023-03-17T00:14:38.530Z,5.90
2023-03-17T00:17:05.472Z,10.38
2023-03-17T00:19:36.379Z,7.88
2023-03-17T00:22:10.169Z,8.63
2023-03-17T00:24:37.461Z,7.68
2023-03-17T00:27:14.574Z,11.32
2023-03-17T00:29:41.794Z,6.85
2023-03-17T00:32:23.379Z,10.35
2023-03-17T00:34:53.533Z,8.95
2023-03-17T00:37:20.619Z,8.07
2023-03-17T00:39:51.830Z,10.10
2023-03-17T00:42:18.760Z,8.38
2023-03-17T00:44:45.928Z,9.18
2023-03-17T00:47:15.265Z,8.85
2023-03-17T00:49:42.174Z,7.45
2023-03-17T00:52:13.137Z,8.27
2023-03-17T00:54:41.563Z,7.55
2023-03-17T00:57:10.834Z,10.30
2023-03-17T00:59:41.641Z,8.18
2023-03-17T01:02:14.622Z,7.60
2023-03-17T01:04:49.894Z,7.35
2023-03-17T01:07:19.950Z,8.52
2023-03-17T01:09:47.172Z,12.43
2023-03-17T01:12:14.221Z,8.10
2023-03-17T01:14:43.700Z,9.68
2023-03-17T01:17:17.108Z,7.47
2023-03-17T01:19:45.172Z,7.25
2023-03-17T01:22:17.256Z,9.25
2023-03-17T01:24:44.238Z,9.45
2023-03-17T01:27:13.724Z,11.80
2023-03-17T01:32:11.117Z,11.93
2023-03-17T01:34:43.228Z,13.18
2023-03-17T01:37:12.399Z,8.85
2023-03-17T01:39:42.020Z,9.70
2023-03-17T01:42:12.135Z,7.95
2023-03-17T01:45:04.110Z,11.43
2023-03-17T01:47:33.215Z,11.80
2023-03-17T01:50:06.293Z,12.02
2023-03-17T01:52:36.600Z,8.82
2023-03-17T01:55:07.093Z,9.93
2023-03-17T01:57:53.580Z,9.95
2023-03-17T02:00:23.570Z,10.98
2023-03-17T02:02:54.145Z,10.95
2023-03-17T02:05:28.613Z,12.15
2023-03-17T02:07:57.737Z,11.75
2023-03-17T02:10:29.760Z,10.15
2023-03-17T02:13:05.534Z,10.02
2023-03-17T02:15:40.913Z,12.27
2023-03-17T02:18:08.411Z,9.00
2023-03-17T02:20:38.425Z,10.65
2023-03-17T02:23:10.788Z,7.82
2023-03-17T02:25:42.307Z,8.75
2023-03-17T02:28:23.154Z,9.65
2023-03-17T02:30:52.522Z,6.70
2023-03-17T02:33:19.485Z,7.03
2023-03-17T02:35:49.096Z,8.23
2023-03-17T02:38:17.584Z,8.25
2023-03-17T02:40:49.850Z,9.95
2023-03-17T02:43:16.832Z,8.02
2023-03-17T02:45:43.757Z,8.43
2023-03-17T02:48:12.244Z,9.73
2023-03-17T02:50:41.547Z,9.65
2023-03-17T02:53:13.140Z,8.30
2023-03-17T02:55:40.051Z,6.80
2023-03-17T02:58:09.419Z,6.63
2023-03-17T03:00:36.354Z,8.98
2023-03-17T03:03:03.403Z,6.07
2023-03-17T03:05:30.323Z,12.30
2023-03-17T03:08:04.392Z,10.15
2023-03-17T03:10:31.771Z,7.05
2023-03-17T03:12:58.904Z,11.00
2023-03-17T03:15:30.721Z,12.32
2023-03-17T03:17:57.669Z,11.68
2023-03-17T03:20:29.474Z,10.80
2023-03-17T03:22:58.697Z,11.10
2023-03-17T03:25:30.552Z,10.40
2023-03-17T03:27:59.945Z,8.80
2023-03-17T03:30:29.386Z,9.60
2023-03-17T03:32:58.676Z,13.40
2023-03-17T03:35:29.557Z,16.27
2023-03-17T03:37:56.891Z,11.93
2023-03-17T03:40:29.044Z,11.13
2023-03-17T03:42:56.237Z,16.80
2023-03-17T03:45:23.239Z,13.95
2023-03-17T03:47:54.795Z,12.98
2023-03-17T03:50:24.139Z,15.63
2023-03-17T03:52:52.225Z,9.73
2023-03-17T03:55:19.255Z,12.60
2023-03-17T03:57:48.445Z,13.93
2023-03-17T04:00:16.406Z,12.27
2023-03-17T04:02:46.941Z,10.77
2023-03-17T04:05:20.457Z,13.30
2023-03-17T04:07:49.587Z,12.35
2023-03-17T04:10:19.094Z,14.23
2023-03-17T04:12:51.152Z,12.50
2023-03-17T04:15:19.625Z,11.98
2023-03-17T04:17:47.159Z,17.15
2023-03-17T04:20:14.458Z,11.85
2023-03-17T04:22:43.804Z,13.55
2023-03-17T04:25:16.394Z,10.32
2023-03-17T04:27:48.166Z,11.48
2023-03-17T04:30:17.868Z,10.23
2023-03-17T04:32:47.679Z,8.80
2023-03-17T04:35:18.446Z,9.75
2023-03-17T04:37:45.618Z,9.68
2023-03-17T04:40:13.072Z,10.27
2023-03-17T04:42:45.483Z,7.38
2023-03-17T04:45:15.605Z,9.38
2023-03-17T04:47:47.555Z,7.40
2023-03-17T04:50:15.317Z,9.45
2023-03-17T04:52:42.277Z,7.85
2023-03-17T04:55:12.671Z,8.65
2023-03-17T04:57:42.080Z,10.68
2023-03-17T05:00:15.522Z,9.15
2023-03-17T05:02:44.717Z,8.65
2023-03-17T05:05:12.973Z,9.60
2023-03-17T05:07:40.291Z,10.60
2023-03-17T05:10:11.366Z,10.95
2023-03-17T05:12:40.636Z,11.52
2023-03-17T05:15:08.051Z,11.05
2023-03-17T05:17:37.491Z,9.68
2023-03-17T05:20:04.768Z,9.43
2023-03-17T05:22:31.821Z,9.43
2023-03-17T05:25:00.892Z,9.85
2023-03-17T05:27:27.827Z,8.48
2023-03-17T05:29:54.775Z,7.80
2023-03-17T05:32:24.652Z,11.15
2023-03-17T05:34:53.884Z,8.52
2023-03-17T05:37:21.031Z,8.60
2023-03-17T05:39:50.072Z,11.52
2023-03-17T05:42:19.995Z,9.93
2023-03-17T05:44:46.938Z,9.77
2023-03-17T05:47:20.964Z,8.73
2023-03-17T05:49:53.257Z,9.85
2023-03-17T05:52:25.513Z,10.05
2023-03-17T05:54:53.503Z,8.95
2023-03-17T05:57:23.480Z,11.23
2023-03-17T05:59:51.034Z,10.48
2023-03-17T06:02:22.528Z,9.70
2023-03-17T06:04:52.190Z,10.20
2023-03-17T06:07:21.508Z,8.20
2023-03-17T06:09:48.459Z,9.27
2023-03-17T06:12:19.806Z,8.25
2023-03-17T06:14:46.758Z,10.05
2023-03-17T06:17:14.466Z,8.70
2023-03-17T06:19:49.483Z,10.75
2023-03-17T06:22:18.767Z,9.45
2023-03-17T06:24:52.579Z,9.73
2023-03-17T06:27:19.710Z,8.43
2023-03-17T06:29:46.839Z,8.02
2023-03-17T06:32:20.946Z,9.80
2023-03-17T06:34:53.852Z,7.13
2023-03-17T06:37:21.495Z,8.68
2023-03-17T06:39:53.233Z,6.88
2023-03-17T06:42:22.637Z,6.30
2023-03-17T06:44:52.674Z,8.13
2023-03-17T06:47:20.016Z,6.75
2023-03-17T06:49:53.583Z,7.10
2023-03-17T06:52:20.598Z,7.05
2023-03-17T06:54:54.700Z,7.47
2023-03-17T06:57:26.230Z,8.27
2023-03-17T06:59:53.238Z,8.38
2023-03-17T07:02:20.192Z,7.93
2023-03-17T07:04:49.367Z,8.50
2023-03-17T07:07:19.576Z,7.47
2023-03-17T07:09:47.853Z,8.18
2023-03-17T07:12:17.305Z,7.93
2023-03-17T07:14:46.377Z,7.32
2023-03-17T07:17:16.104Z,7.85
2023-03-17T07:19:45.338Z,6.93
2023-03-17T07:22:14.826Z,7.50
2023-03-17T07:24:43.255Z,7.05
2023-03-17T07:27:14.459Z,7.70
2023-03-17T07:29:44.356Z,7.18
2023-03-17T07:32:16.288Z,7.10
2023-03-17T07:34:46.309Z,7.63
2023-03-17T07:37:17.680Z,8.02
2023-03-17T07:39:48.302Z,6.43
2023-03-17T07:42:20.781Z,6.13
2023-03-17T07:44:49.875Z,6.80
2023-03-17T07:47:19.250Z,6.82
2023-03-17T07:49:46.933Z,7.85
2023-03-17T07:52:16.483Z,6.60
2023-03-17T07:54:48.349Z,9.10
2023-03-17T07:57:17.811Z,9.25
2023-03-17T07:59:44.808Z,9.27
2023-03-17T08:02:16.026Z,11.82
2023-03-17T08:04:46.024Z,9.20
2023-03-17T08:07:20.332Z,8.43
2023-03-17T08:09:47.855Z,7.28
2023-03-17T08:12:15.008Z,6.93
2023-03-17T08:14:44.098Z,8.73
2023-03-17T08:17:14.101Z,5.13
2023-03-17T08:19:43.791Z,6.85
2023-03-17T08:22:15.583Z,6.35
2023-03-17T08:24:50.030Z,6.22
2023-03-17T08:27:22.480Z,6.28
2023-03-17T08:29:51.957Z,5.90
2023-03-17T08:32:21.712Z,6.10
2023-03-17T08:34:53.953Z,5.25
2023-03-17T08:37:24.751Z,7.97
2023-03-17T08:39:56.605Z,6.15
2023-03-17T08:42:23.817Z,5.38
2023-03-17T08:44:50.752Z,5.18
2023-03-17T08:47:24.951Z,4.65
2023-03-17T08:49:51.901Z,4.22
2023-03-17T08:52:24.262Z,4.03
2023-03-17T08:54:56.015Z,3.47
2023-03-17T08:57:25.428Z,3.90
2023-03-17T08:59:54.877Z,4.63
2023-03-17T09:02:25.349Z,3.83
2023-03-17T09:04:54.512Z,4.03
2023-03-17T09:07:21.820Z,4.10
2023-03-17T09:09:51.735Z,3.53
2023-03-17T09:12:20.772Z,4.10
2023-03-17T09:14:49.396Z,3.85
2023-03-17T09:17:16.432Z,3.97
2023-03-17T09:19:48.142Z,4.13
2023-03-17T09:22:21.233Z,3.92
2023-03-17T09:24:48.224Z,3.45
2023-03-17T09:27:19.825Z,2.90
2023-03-17T09:29:49.291Z,2.55
2023-03-17T09:34:51.285Z,4.32
2023-03-17T09:37:18.487Z,3.45
2023-03-17T09:39:45.426Z,2.83
2023-03-17T09:42:30.428Z,3.03
2023-03-17T09:45:09.255Z,2.85
2023-03-17T09:50:25.404Z,3.00
2023-03-17T09:52:53.059Z,3.88
2023-03-17T09:55:27.060Z,3.45
2023-03-17T09:58:00.904Z,2.38
2023-03-17T10:00:31.266Z,2.67
2023-03-17T10:03:01.619Z,3.45
2023-03-17T10:05:30.912Z,3.13
2023-03-17T10:08:18.976Z,2.60
2023-03-17T10:11:31.568Z,3.13
2023-03-17T10:14:05.136Z,2.95
2023-03-17T10:16:50.157Z,3.53
2023-03-17T10:19:21.987Z,4.47
2023-03-17T10:21:52.602Z,3.15
2023-03-17T10:24:25.694Z,3.60
2023-03-17T10:26:57.905Z,3.15
2023-03-17T10:29:25.397Z,3.05
2023-03-17T10:31:53.095Z,3.67
2023-03-17T10:34:29.837Z,4.38
2023-03-17T10:37:01.721Z,3.72
2023-03-17T10:39:32.879Z,2.63
2023-03-17T10:42:10.482Z,2.90
2023-03-17T10:44:40.483Z,4.38
2023-03-17T10:47:25.646Z,3.88
2023-03-17T10:52:28.915Z,2.85
2023-03-17T10:54:56.149Z,3.65
2023-03-17T10:57:25.275Z,3.83
2023-03-17T10:59:57.535Z,3.05
2023-03-17T11:02:46.365Z,4.32
2023-03-17T11:05:24.468Z,3.38
2023-03-17T11:07:57.785Z,2.95
2023-03-17T11:10:30.287Z,5.35
2023-03-17T11:13:01.969Z,4.28
2023-03-17T11:15:35.965Z,4.10
2023-03-17T11:18:33.415Z,6.68
2023-03-17T11:21:02.392Z,6.63
2023-03-17T11:23:48.171Z,6.82
2023-03-17T11:26:38.982Z,5.45
2023-03-17T11:29:43.890Z,6.30
2023-03-17T11:32:29.374Z,4.28
2023-03-17T11:35:14.283Z,5.70
2023-03-17T11:38:07.160Z,6.53
2023-03-17T11:40:55.553Z,6.28
2023-03-17T11:44:18.865Z,7.93
2023-03-17T11:46:56.353Z,6.50
2023-03-17T11:49:41.806Z,4.55
2023-03-17T11:52:36.743Z,4.80
2023-03-17T11:55:16.373Z,4.60
2023-03-17T11:58:03.556Z,4.85
2023-03-17T12:00:36.647Z,4.53
2023-03-17T12:03:14.628Z,6.45
2023-03-17T12:05:46.888Z,7.00
2023-03-17T12:08:40.392Z,6.28
2023-03-17T12:11:13.357Z,4.63
2023-03-17T12:13:49.829Z,3.97
2023-03-17T12:16:25.677Z,3.80
2023-03-17T12:19:23.507Z,6.03
2023-03-17T12:21:56.740Z,4.03
2023-03-17T12:24:32.846Z,4.60
2023-03-17T12:27:14.508Z,5.20
2023-03-17T12:29:49.933Z,5.28
2023-03-17T12:32:36.013Z,4.63
2023-03-17T12:35:17.117Z,4.93
2023-03-17T12:37:44.020Z,3.42
2023-03-17T12:40:20.756Z,6.03
2023-03-17T12:43:09.433Z,4.25
2023-03-17T12:46:11.166Z,5.72
2023-03-17T12:48:38.691Z,4.63
2023-03-17T12:51:23.173Z,3.63
2023-03-17T12:53:52.737Z,5.50
2023-03-17T12:56:24.440Z,4.97
2023-03-17T12:58:52.554Z,4.50
2023-03-17T13:01:23.107Z,5.00
2023-03-17T13:04:11.075Z,4.63
2023-03-17T13:07:08.269Z,4.43
2023-03-17T13:09:43.186Z,5.78
2023-03-17T13:12:36.287Z,4.85
2023-03-17T13:15:03.330Z,6.15
2023-03-17T13:17:33.835Z,4.30
2023-03-17T13:20:12.129Z,3.53
2023-03-17T13:22:40.081Z,6.65
2023-03-17T13:25:36.203Z,4.45
2023-03-17T13:28:12.290Z,5.63
2023-03-17T13:30:39.413Z,4.25
2023-03-17T13:33:09.757Z,4.65
2023-03-17T13:35:48.026Z,4.07
2023-03-17T13:38:30.914Z,3.67
2023-03-17T13:41:23.533Z,2.85
2023-03-17T13:43:57.886Z,5.40
2023-03-17T13:46:36.715Z,3.30
2023-03-17T13:49:26.855Z,4.90
2023-03-17T13:52:01.710Z,5.53
2023-03-17T13:54:28.905Z,5.72
2023-03-17T13:56:59.311Z,4.63
2023-03-17T13:59:50.127Z,5.93
2023-03-17T14:02:24.049Z,6.25
2023-03-17T14:04:57.588Z,3.42
2023-03-17T14:07:27.122Z,3.65
2023-03-17T14:10:01.503Z,6.65
2023-03-17T14:12:39.718Z,5.35
2023-03-17T14:15:14.406Z,3.60
2023-03-17T14:17:49.578Z,3.00
2023-03-17T14:20:16.870Z,4.55
2023-03-17T14:22:47.992Z,4.68
2023-03-17T14:25:22.683Z,4.10
2023-03-17T14:27:53.146Z,4.93
2023-03-17T14:30:25.721Z,4.97
2023-03-17T14:33:04.303Z,4.55
2023-03-17T14:35:39.259Z,3.35
2023-03-17T14:38:20.680Z,4.45
2023-03-17T14:40:47.945Z,5.05
2023-03-17T14:43:17.396Z,2.67
2023-03-17T14:46:00.698Z,5.57
2023-03-17T14:48:37.302Z,5.18
2023-03-17T14:51:24.700Z,2.90
2023-03-17T14:53:52.103Z,3.72
2023-03-17T14:56:29.785Z,3.80
2023-03-17T14:58:56.753Z,3.25
2023-03-17T15:01:32.735Z,5.97
2023-03-17T15:04:32.194Z,2.95
2023-03-17T15:07:07.460Z,5.10
2023-03-17T15:09:34.412Z,3.80
2023-03-17T15:12:17.530Z,3.22
2023-03-17T15:14:49.815Z,4.18
2023-03-17T15:17:26.701Z,3.50
2023-03-17T15:19:58.128Z,2.88
2023-03-17T15:22:36.486Z,3.72
2023-03-17T15:25:29.137Z,3.60
2023-03-17T15:27:56.269Z,3.88
2023-03-17T15:30:29.498Z,3.40
2023-03-17T15:33:00.915Z,3.08
2023-03-17T15:35:30.599Z,4.68
2023-03-17T15:37:59.736Z,3.38
2023-03-17T15:40:31.273Z,5.65
2023-03-17T15:43:02.654Z,2.53
2023-03-17T15:45:32.582Z,4.75
2023-03-17T15:48:03.936Z,6.38
2023-03-17T15:50:36.679Z,4.60
2023-03-17T15:53:06.083Z,5.00
2023-03-17T15:55:35.253Z,1.88
2023-03-17T15:58:04.319Z,4.95
2023-03-17T16:00:31.727Z,4.85
2023-03-17T16:03:00.184Z,6.60
2023-03-17T16:05:31.206Z,5.68
2023-03-17T16:08:02.458Z,4.82
2023-03-17T16:10:32.838Z,5.25
2023-03-17T16:13:00.041Z,6.00
2023-03-17T16:15:31.257Z,8.32
2023-03-17T16:17:59.748Z,8.55
2023-03-17T16:20:34.397Z,4.63
2023-03-17T16:23:19.350Z,6.93
2023-03-17T16:25:49.705Z,3.78
2023-03-17T16:28:18.097Z,5.70
2023-03-17T16:30:48.499Z,5.32
2023-03-17T16:33:21.500Z,4.65
2023-03-17T16:35:53.601Z,7.63
2023-03-17T16:38:22.547Z,7.93
2023-03-17T16:40:58.664Z,6.30
2023-03-17T16:43:33.886Z,3.70
2023-03-17T16:46:02.973Z,4.95
2023-03-17T16:48:30.064Z,6.38
2023-03-17T16:50:59.763Z,6.85
2023-03-17T16:53:29.722Z,5.05
2023-03-17T16:55:58.914Z,4.28
2023-03-17T16:58:27.292Z,5.00
2023-03-17T17:00:59.106Z,6.50
2023-03-17T17:03:26.705Z,5.28
2023-03-17T17:05:56.285Z,8.05
2023-03-17T17:08:23.443Z,5.80
2023-03-17T17:10:52.942Z,5.10
2023-03-17T17:13:22.367Z,4.85
2023-03-17T17:15:54.135Z,5.30
2023-03-17T17:18:22.429Z,6.93
2023-03-17T17:20:52.297Z,5.82
2023-03-17T17:23:24.162Z,6.93
2023-03-17T17:25:53.952Z,8.63
2023-03-17T17:28:22.779Z,3.95
2023-03-17T17:30:51.066Z,3.92
2023-03-17T17:33:20.145Z,3.75
2023-03-17T17:35:50.722Z,8.35
2023-03-17T17:38:28.606Z,4.68
2023-03-17T17:40:59.166Z,6.85
2023-03-17T17:43:26.265Z,8.10
2023-03-17T17:45:53.520Z,5.65
2023-03-17T17:48:22.684Z,10.48
2023-03-17T17:50:53.155Z,8.45
2023-03-17T17:53:22.352Z,5.65
2023-03-17T17:55:51.914Z,5.07
2023-03-17T17:58:23.073Z,7.05
2023-03-17T18:00:53.940Z,5.30
2023-03-17T18:03:25.296Z,3.45
2023-03-17T18:05:59.073Z,5.22
2023-03-17T18:08:28.249Z,7.53
2023-03-17T18:10:56.644Z,5.82
2023-03-17T18:13:23.675Z,8.23
2023-03-17T18:15:50.936Z,10.63
2023-03-17T18:18:22.604Z,7.22
2023-03-17T18:20:53.850Z,8.55
2023-03-17T18:23:21.182Z,5.80
2023-03-17T18:25:48.182Z,5.90
2023-03-17T18:28:15.150Z,6.32
2023-03-17T18:30:44.668Z,7.28
2023-03-17T18:35:47.461Z,7.65
2023-03-17T18:38:17.019Z,4.38
2023-03-17T18:40:46.406Z,8.65
2023-03-17T18:43:18.006Z,11.05
2023-03-17T18:45:50.414Z,9.88
2023-03-17T18:48:17.369Z,7.85
2023-03-17T18:50:49.261Z,6.47
2023-03-17T18:53:22.209Z,7.22
2023-03-17T18:55:57.106Z,7.70
2023-03-17T18:58:24.175Z,8.80
2023-03-17T19:00:53.365Z,6.78
2023-03-17T19:03:20.785Z,8.40
2023-03-17T19:05:52.627Z,7.90
2023-03-17T19:08:24.060Z,9.35
2023-03-17T19:10:53.229Z,8.30
2023-03-17T19:13:24.820Z,8.15
2023-03-17T19:15:57.328Z,8.40
2023-03-17T19:18:27.261Z,10.05
2023-03-17T19:20:55.987Z,7.68
2023-03-17T19:23:23.333Z,8.60
2023-03-17T19:25:52.507Z,8.18
2023-03-17T19:28:20.443Z,8.90
2023-03-17T19:30:47.555Z,8.15
2023-03-17T19:33:15.884Z,8.50
2023-03-17T19:35:46.205Z,7.75
2023-03-17T19:38:15.357Z,11.65
2023-03-17T19:40:46.749Z,10.63
2023-03-17T19:43:36.842Z,10.77
2023-03-17T19:46:05.396Z,9.63
2023-03-17T19:48:33.590Z,9.18
2023-03-17T19:51:01.517Z,11.57
2023-03-17T19:53:28.517Z,13.13
2023-03-17T19:55:56.812Z,10.82
2023-03-17T19:58:26.035Z,15.43
2023-03-17T20:00:53.030Z,13.23
2023-03-17T20:03:20.015Z,11.95
2023-03-17T20:05:51.212Z,11.80
2023-03-17T20:08:22.404Z,14.10
2023-03-17T20:10:57.912Z,13.30
2023-03-17T20:13:29.333Z,13.35
2023-03-17T20:15:57.360Z,13.38
2023-03-17T20:18:26.606Z,16.15
2023-03-17T20:20:57.628Z,12.57
2023-03-17T20:23:26.943Z,11.85
2023-03-17T20:25:53.945Z,13.70
2023-03-17T20:28:30.118Z,15.43
2023-03-17T20:31:04.611Z,12.55
2023-03-17T20:33:33.402Z,12.57
2023-03-17T20:36:00.814Z,19.65
2023-03-17T20:38:33.381Z,16.17
2023-03-17T20:41:12.575Z,13.60
2023-03-17T20:43:40.370Z,14.25
2023-03-17T20:46:15.665Z,11.23
2023-03-17T20:48:47.798Z,14.70
2023-03-17T20:51:17.726Z,14.05
2023-03-17T20:53:48.043Z,14.18
2023-03-17T20:56:15.908Z,14.48
2023-03-17T20:58:43.696Z,13.93
2023-03-17T21:01:12.880Z,12.20
2023-03-17T21:03:40.594Z,13.10
2023-03-17T21:06:12.289Z,12.65
2023-03-17T21:08:39.249Z,11.52
2023-03-17T21:11:11.288Z,13.02
2023-03-17T21:13:40.367Z,9.75
2023-03-17T21:16:18.081Z,11.27
2023-03-17T21:18:45.099Z,8.95
2023-03-17T21:21:12.049Z,12.55
2023-03-17T21:23:39.036Z,11.27
2023-03-17T21:26:09.232Z,12.05
2023-03-17T21:28:36.731Z,13.55
2023-03-17T21:31:09.498Z,12.98
2023-03-17T21:33:41.912Z,12.75
2023-03-17T21:36:11.633Z,10.40
2023-03-17T21:38:41.906Z,12.07
2023-03-17T21:41:39.472Z,10.55
2023-03-17T21:44:09.818Z,12.32
2023-03-17T21:46:41.383Z,14.77
2023-03-17T21:49:08.695Z,15.35
2023-03-17T21:51:35.728Z,11.30
2023-03-17T21:54:07.178Z,12.38
2023-03-17T21:56:36.733Z,10.93
2023-03-17T21:59:04.071Z,12.45
2023-03-17T22:01:31.245Z,10.55
2023-03-17T22:04:02.629Z,12.80
2023-03-17T22:06:32.045Z,9.10
2023-03-17T22:09:04.454Z,12.02
2023-03-17T22:11:36.004Z,9.15
2023-03-17T22:14:05.677Z,9.50
2023-03-17T22:16:35.161Z,9.27
2023-03-17T22:19:04.567Z,10.75
2023-03-17T22:21:31.895Z,10.90
2023-03-17T22:24:01.044Z,11.20
2023-03-17T22:26:28.579Z,11.05
2023-03-17T22:28:55.538Z,9.90
2023-03-17T22:31:24.427Z,10.65
2023-03-17T22:33:55.341Z,9.15
2023-03-17T22:36:22.978Z,10.68
2023-03-17T22:38:52.355Z,10.45
2023-03-17T22:41:21.541Z,11.23
2023-03-17T22:43:51.058Z,9.00
2023-03-17T22:46:20.560Z,12.00
2023-03-17T22:48:47.686Z,15.27
2023-03-17T22:51:26.840Z,15.68
2023-03-17T22:53:56.208Z,12.77
2023-03-17T22:56:23.372Z,8.70
2023-03-17T22:58:57.365Z,11.82
2023-03-17T23:01:27.390Z,9.88
2023-03-17T23:03:54.773Z,10.30
2023-03-17T23:06:24.620Z,10.93
2023-03-17T23:08:52.271Z,10.70
2023-03-17T23:11:23.897Z,11.95
2023-03-17T23:13:51.435Z,9.30
2023-03-17T23:16:22.110Z,10.65
2023-03-17T23:18:53.758Z,9.52
2023-03-17T23:21:37.972Z,7.22
2023-03-17T23:24:07.058Z,9.18
2023-03-17T23:26:37.230Z,10.50
2023-03-17T23:29:05.184Z,11.35
2023-03-17T23:31:32.200Z,7.75
2023-03-17T23:34:01.281Z,8.65
2023-03-17T23:36:30.669Z,7.07
2023-03-17T23:38:57.691Z,9.68
2023-03-17T23:41:29.634Z,7.32
2023-03-17T23:43:58.787Z,10.02
2023-03-17T23:46:29.056Z,12.13
2023-03-17T23:48:56.354Z,10.57
2023-03-17T23:51:25.538Z,7.82
2023-03-17T23:53:52.985Z,11.73
2023-03-17T23:56:22.354Z,8.38
2023-03-17T23:58:50.028Z,11.65
